^^
Station Historical Data
Daily Summary for June 14, 2018 Units:  English    Metric   Both
« Previous Day
Next Day »
Daily Weekly Monthly Yearly Custom
  High: Low: Average:
Temperature: TemperatureF °F 52.8 °F 58 °F
Dew Point: DewpointF °F 51.5 °F 57 °F
Humidity: Humidity % 94 % 96 %
Wind Speed: WindSpeedMPH mph 0.0 mph 0.2 mph
Wind Gust: WindSpeedGustMPH mph - -
Wind:- - WNW
Pressure: PressureIn in 29.45 in -
Precipitation: 0.24 in    
Historical Graphs
 
 
Tabular Data for June 14, 2018
Time Temperature Dew Point Pressure Wind Wind Speed Wind Gust Humidity Rainfall Rate (Hourly) solar Conditions
TemperatureF °F DewpointF °F PressureIn in Calm     Humidity % HourlyPrecipIn in SoftwareType W/m2 Conditions
00:00 62.1 °F 60.9 °F 29.47 in West 1.0 mph 6.0 mph 96 % 0.00 in WeatherDisplay:10.37 W/m2 RA
00:05 62.1 °F 60.9 °F 29.47 in West 1.0 mph 7.0 mph 96 % 0.00 in WeatherDisplay:10.37 W/m2 RA
00:10 62.1 °F 60.9 °F 29.47 in Calm   7.0 mph 96 % 0.00 in WeatherDisplay:10.37 W/m2 FEW
00:15 62.1 °F 60.9 °F 29.47 in West 1.0 mph 8.0 mph 96 % 0.00 in WeatherDisplay:10.37 W/m2 FEW
00:20 62.1 °F 60.9 °F 29.47 in Calm   9.0 mph 96 % 0.00 in WeatherDisplay:10.37 W/m2 FEW
00:25 62.0 °F 60.8 °F 29.47 in Calm   4.0 mph 96 % 0.00 in WeatherDisplay:10.37 W/m2 FEW
00:30 62.0 °F 60.8 °F 29.47 in Calm   6.0 mph 96 % 0.00 in WeatherDisplay:10.37 W/m2 FEW
00:35 61.9 °F 60.8 °F 29.47 in WNW 2.0 mph 7.0 mph 96 % 0.00 in WeatherDisplay:10.37 W/m2 FEW
00:40 61.9 °F 60.7 °F 29.46 in Calm   4.0 mph 96 % 0.00 in WeatherDisplay:10.37 W/m2 FEW
00:45 61.9 °F 60.7 °F 29.46 in West 1.0 mph 8.0 mph 96 % 0.00 in WeatherDisplay:10.37 W/m2 FEW
00:50 61.8 °F 60.6 °F 29.47 in Calm   7.0 mph 96 % 0.00 in WeatherDisplay:10.37 W/m2 FEW
00:55 61.7 °F 60.5 °F 29.46 in Calm   10.0 mph 96 % 0.00 in WeatherDisplay:10.37 W/m2 FEW
01:00 61.6 °F 60.5 °F 29.46 in West 1.0 mph 5.0 mph 96 % 0.00 in WeatherDisplay:10.37 W/m2 FEW
01:05 61.6 °F 60.4 °F 29.46 in WNW 1.0 mph 5.0 mph 96 % 0.00 in WeatherDisplay:10.37 W/m2 FEW
01:10 61.5 °F 60.3 °F 29.47 in Calm   6.0 mph 96 % 0.00 in WeatherDisplay:10.37 W/m2 FEW
01:15 61.4 °F 60.2 °F 29.47 in WSW 1.0 mph 8.0 mph 96 % 0.00 in WeatherDisplay:10.37 W/m2 FEW
01:20 61.3 °F 60.2 °F 29.47 in Calm   4.0 mph 96 % 0.00 in WeatherDisplay:10.37 W/m2 FEW
01:25 61.2 °F 60.1 °F 29.47 in NW 1.0 mph 4.0 mph 96 % 0.00 in WeatherDisplay:10.37 W/m2 FEW
01:30 61.2 °F 60.1 °F 29.47 in WNW 1.0 mph 4.0 mph 96 % 0.00 in WeatherDisplay:10.37 W/m2 FEW
01:35 61.1 °F 60.0 °F 29.47 in Calm   4.0 mph 96 % 0.00 in WeatherDisplay:10.37 W/m2 FEW
01:40 61.0 °F 59.9 °F 29.47 in West 1.0 mph 8.0 mph 96 % 0.00 in WeatherDisplay:10.37 W/m2 FEW
01:45 60.9 °F 59.8 °F 29.47 in Calm   7.0 mph 96 % 0.00 in WeatherDisplay:10.37 W/m2 FEW
01:50 60.8 °F 59.7 °F 29.47 in Calm   4.0 mph 96 % 0.00 in WeatherDisplay:10.37 W/m2 FEW
01:55 60.8 °F 59.7 °F 29.47 in Calm   7.0 mph 96 % 0.00 in WeatherDisplay:10.37 W/m2 FEW
02:00 60.6 °F 59.5 °F 29.47 in West 1.0 mph 6.0 mph 96 % 0.00 in WeatherDisplay:10.37 W/m2 FEW
02:05 60.5 °F 59.4 °F 29.47 in Calm   7.0 mph 96 % 0.00 in WeatherDisplay:10.37 W/m2 FEW
02:10 60.4 °F 59.3 °F 29.47 in Calm   10.0 mph 96 % 0.00 in WeatherDisplay:10.37 W/m2 FEW
02:15 60.3 °F 59.2 °F 29.47 in Calm   2.0 mph 96 % 0.00 in WeatherDisplay:10.37 W/m2 FEW
02:20 60.2 °F 59.1 °F 29.47 in Calm   4.0 mph 96 % 0.00 in WeatherDisplay:10.37 W/m2 FEW
02:25 60.1 °F 59.0 °F 29.48 in WNW 1.0 mph 8.0 mph 96 % 0.00 in WeatherDisplay:10.37 W/m2 FEW
02:30 60.0 °F 58.9 °F 29.48 in Calm   6.0 mph 96 % 0.00 in WeatherDisplay:10.37 W/m2 FEW
02:35 59.9 °F 58.8 °F 29.47 in Calm   10.0 mph 96 % 0.00 in WeatherDisplay:10.37 W/m2 FEW
02:40 59.8 °F 58.7 °F 29.47 in Calm   3.0 mph 96 % 0.00 in WeatherDisplay:10.37 W/m2 FEW
02:45 59.7 °F 58.6 °F 29.47 in Calm   2.0 mph 96 % 0.02 in WeatherDisplay:10.37 W/m2 RA
02:50 59.6 °F 58.5 °F 29.47 in Calm   2.0 mph 96 % 0.01 in WeatherDisplay:10.37 W/m2 RA
02:55 59.5 °F 58.3 °F 29.47 in Calm   3.0 mph 96 % 0.01 in WeatherDisplay:10.37 W/m2 RA
03:00 59.4 °F 58.2 °F 29.47 in Calm   3.0 mph 96 % 0.01 in WeatherDisplay:10.37 W/m2 RA
03:05 59.3 °F 58.2 °F 29.47 in Calm   5.0 mph 96 % 0.00 in WeatherDisplay:10.37 W/m2 RA
03:10 59.2 °F 58.0 °F 29.48 in Calm   5.0 mph 96 % 0.01 in WeatherDisplay:10.37 W/m2 RA
03:15 59.0 °F 57.9 °F 29.48 in West 1.0 mph 4.0 mph 96 % 0.01 in WeatherDisplay:10.37 W/m2 RA
03:20 58.9 °F 57.7 °F 29.48 in WNW 1.0 mph 9.0 mph 96 % 0.00 in WeatherDisplay:10.37 W/m2 RA
03:25 58.7 °F 57.6 °F 29.48 in WNW 1.0 mph 5.0 mph 96 % 0.00 in WeatherDisplay:10.37 W/m2 FEW
03:30 58.5 °F 57.4 °F 29.47 in West 1.0 mph 5.0 mph 96 % 0.01 in WeatherDisplay:10.37 W/m2 RA
03:35 58.4 °F 57.3 °F 29.47 in West 1.0 mph 6.0 mph 96 % 0.00 in WeatherDisplay:10.37 W/m2 RA
03:40 58.3 °F 57.2 °F 29.47 in NW 1.0 mph 5.0 mph 96 % 0.00 in WeatherDisplay:10.37 W/m2 FEW
03:45 58.2 °F 57.1 °F 29.47 in Calm   4.0 mph 96 % 0.01 in WeatherDisplay:10.37 W/m2 RA
03:50 58.1 °F 57.0 °F 29.47 in Calm   3.0 mph 96 % 0.01 in WeatherDisplay:10.37 W/m2 RA
03:55 58.1 °F 57.0 °F 29.46 in Calm   1.0 mph 96 % 0.00 in WeatherDisplay:10.37 W/m2 RA
04:00 58.0 °F 56.9 °F 29.46 in Calm   1.0 mph 96 % 0.00 in WeatherDisplay:10.37 W/m2 FEW
04:05 58.0 °F 56.8 °F 29.46 in WNW 1.0 mph 4.0 mph 96 % 0.00 in WeatherDisplay:10.37 W/m2 FEW
04:10 57.9 °F 56.8 °F 29.46 in Calm   2.0 mph 96 % 0.00 in WeatherDisplay:10.37 W/m2 FEW
04:15 57.9 °F 56.8 °F 29.46 in WSW 1.0 mph 6.0 mph 96 % 0.00 in WeatherDisplay:10.37 W/m2 FEW
04:20 57.8 °F 56.7 °F 29.46 in Calm   5.0 mph 96 % 0.00 in WeatherDisplay:10.37 W/m2 FEW
04:25 57.8 °F 56.7 °F 29.46 in NW 1.0 mph 5.0 mph 96 % 0.01 in WeatherDisplay:10.37 W/m2 RA
04:30 57.8 °F 56.7 °F 29.46 in NW 2.0 mph 7.0 mph 96 % 0.00 in WeatherDisplay:10.37 W/m2 RA
04:35 57.8 °F 56.7 °F 29.45 in Calm   2.0 mph 96 % 0.02 in WeatherDisplay:10.37 W/m2 RA
04:40 57.8 °F 56.6 °F 29.45 in Calm   1.0 mph 96 % 0.01 in WeatherDisplay:10.37 W/m2 RA
04:45 57.7 °F 56.6 °F 29.45 in NW 1.0 mph 8.0 mph 96 % 0.01 in WeatherDisplay:10.37 W/m2 RA
04:50 57.7 °F 56.6 °F 29.45 in WNW 2.0 mph 8.0 mph 96 % 0.01 in WeatherDisplay:10.37 W/m2 RA
04:55 57.7 °F 56.6 °F 29.45 in Calm   6.0 mph 96 % 0.01 in WeatherDisplay:10.37 W/m2 RA
05:00 57.7 °F 56.6 °F 29.45 in Calm   3.0 mph 96 % 0.01 in WeatherDisplay:10.37 W/m2 RA
05:05 57.7 °F 56.6 °F 29.45 in NW 1.0 mph 5.0 mph 96 % 0.00 in WeatherDisplay:10.37 W/m2 RA
05:10 57.7 °F 56.6 °F 29.46 in NW 1.0 mph 4.0 mph 96 % 0.01 in WeatherDisplay:10.37 W/m2 RA
05:15 57.8 °F 56.7 °F 29.46 in Calm   3.0 mph 96 % 0.00 in WeatherDisplay:10.37 W/m2 RA
05:20 57.8 °F 56.7 °F 29.46 in Calm   4.0 mph 96 % 0.00 in WeatherDisplay:10.37 W/m2 FEW
05:25 57.8 °F 56.7 °F 29.46 in Calm   3.0 mph 96 % 0.00 in WeatherDisplay:10.37 W/m2 FEW
05:30 57.8 °F 57.8 °F 29.46 in Calm   2.0 mph 100 % 0.00 in WeatherDisplay:10.37 W/m2 FEW
05:35 57.9 °F 57.9 °F 29.46 in Calm   5.0 mph 100 % 0.00 in WeatherDisplay:10.37 W/m2 FEW
05:40 57.9 °F 57.9 °F 29.46 in Calm   1.0 mph 100 % 0.00 in WeatherDisplay:10.37 W/m2 FEW
05:45 58.0 °F 58.0 °F 29.47 in Calm   4.0 mph 100 % 0.00 in WeatherDisplay:10.37 W/m2 FEW
05:50 58.0 °F 58.0 °F 29.47 in Calm   5.0 mph 100 % 0.00 in WeatherDisplay:10.37 W/m2 FEW
05:55 58.1 °F 58.1 °F 29.47 in Calm   5.0 mph 100 % 0.00 in WeatherDisplay:10.37 W/m2 FEW
06:00 58.1 °F 58.1 °F 29.47 in Calm   1.0 mph 100 % 0.00 in WeatherDisplay:10.37 W/m2 FEW
06:05 58.2 °F 58.2 °F 29.47 in Calm   3.0 mph 100 % 0.00 in WeatherDisplay:10.37 W/m2 FEW
06:10 58.2 °F 58.2 °F 29.48 in Calm   1.0 mph 100 % 0.00 in WeatherDisplay:10.37 W/m2 FEW
06:15 58.3 °F 58.3 °F 29.48 in Calm   2.0 mph 100 % 0.00 in WeatherDisplay:10.37 W/m2 FEW
06:20 58.3 °F 58.3 °F 29.48 in Calm   3.0 mph 100 % 0.01 in WeatherDisplay:10.37 W/m2 RA
06:25 58.3 °F 58.3 °F 29.48 in Calm     100 % 0.00 in WeatherDisplay:10.37 W/m2 RA
06:30 58.3 °F 58.3 °F 29.49 in Calm   1.0 mph 100 % 0.00 in WeatherDisplay:10.37 W/m2 FEW
06:35 58.4 °F 58.4 °F 29.49 in WNW 1.0 mph 5.0 mph 100 % 0.00 in WeatherDisplay:10.37 W/m2 FEW
06:40 58.4 °F 58.4 °F 29.49 in NW 2.0 mph 7.0 mph 100 % 0.00 in WeatherDisplay:10.37 W/m2 FEW
06:45 58.4 °F 58.4 °F 29.50 in Calm   7.0 mph 100 % 0.00 in WeatherDisplay:10.37 W/m2 FEW
06:50 58.3 °F 58.3 °F 29.50 in NW 1.0 mph 7.0 mph 100 % 0.00 in WeatherDisplay:10.37 W/m2 FEW
06:55 58.3 °F 58.3 °F 29.50 in Calm   4.0 mph 100 % 0.00 in WeatherDisplay:10.37 W/m2 FEW
07:00 58.2 °F 58.2 °F 29.50 in Calm   3.0 mph 100 % 0.00 in WeatherDisplay:10.37 W/m2 FEW
07:05 58.2 °F 58.2 °F 29.50 in Calm   3.0 mph 100 % 0.00 in WeatherDisplay:10.37 W/m2 FEW
07:10 58.1 °F 58.1 °F 29.50 in NW 1.0 mph 4.0 mph 100 % 0.00 in WeatherDisplay:10.37 W/m2 FEW
07:15 58.1 °F 58.1 °F 29.51 in Calm   1.0 mph 100 % 0.00 in WeatherDisplay:10.37 W/m2 FEW
07:20 58.1 °F 58.1 °F 29.51 in Calm   1.0 mph 100 % 0.00 in WeatherDisplay:10.37 W/m2 FEW
07:25 58.1 °F 58.1 °F 29.51 in Calm   1.0 mph 100 % 0.00 in WeatherDisplay:10.37 W/m2 FEW
07:30 58.2 °F 58.2 °F 29.51 in Calm   1.0 mph 100 % 0.00 in WeatherDisplay:10.37 W/m2 FEW
07:35 58.2 °F 58.2 °F 29.52 in Calm     100 % 0.00 in WeatherDisplay:10.37 W/m2 FEW
07:40 58.3 °F 58.3 °F 29.52 in Calm   3.0 mph 100 % 0.00 in WeatherDisplay:10.37 W/m2 FEW
07:45 58.3 °F 58.3 °F 29.52 in Calm   3.0 mph 100 % 0.00 in WeatherDisplay:10.37 W/m2 FEW
07:50 58.4 °F 58.4 °F 29.52 in NW 1.0 mph 5.0 mph 100 % 0.00 in WeatherDisplay:10.37 W/m2 FEW
07:55 58.5 °F 58.5 °F 29.52 in NW 1.0 mph 5.0 mph 100 % 0.00 in WeatherDisplay:10.37 W/m2 FEW
08:00 58.6 °F 58.6 °F 29.53 in NW 1.0 mph 4.0 mph 100 % 0.00 in WeatherDisplay:10.37 W/m2 FEW
08:05 58.6 °F 58.6 °F 29.53 in NW 2.0 mph 8.0 mph 100 % 0.00 in WeatherDisplay:10.37 W/m2 FEW
08:10 58.5 °F 58.5 °F 29.53 in NW 3.0 mph 8.0 mph 100 % 0.00 in WeatherDisplay:10.37 W/m2 FEW
08:15 58.4 °F 58.4 °F 29.53 in NW 1.0 mph 8.0 mph 100 % 0.00 in WeatherDisplay:10.37 W/m2 FEW
08:20 58.4 °F 58.4 °F 29.53 in NW 2.0 mph 8.0 mph 100 % 0.00 in WeatherDisplay:10.37 W/m2 FEW
08:25 58.4 °F 58.4 °F 29.53 in NNW 3.0 mph 8.0 mph 100 % 0.00 in WeatherDisplay:10.37 W/m2 FEW
08:30 58.4 °F 58.4 °F 29.54 in NNW 3.0 mph 9.0 mph 100 % 0.00 in WeatherDisplay:10.37 W/m2 FEW
08:35 58.4 °F 58.4 °F 29.54 in Calm   5.0 mph 100 % 0.00 in WeatherDisplay:10.37 W/m2 FEW
08:40 58.5 °F 58.5 °F 29.54 in NW 3.0 mph 8.0 mph 100 % 0.00 in WeatherDisplay:10.37 W/m2 FEW
08:45 58.6 °F 58.6 °F 29.55 in NNW 2.0 mph 8.0 mph 100 % 0.00 in WeatherDisplay:10.37 W/m2 FEW
08:50 58.7 °F 58.7 °F 29.55 in NNW 1.0 mph 4.0 mph 100 % 0.00 in WeatherDisplay:10.37 W/m2 FEW
08:55 59.0 °F 59.0 °F 29.55 in Calm   3.0 mph 100 % 0.00 in WeatherDisplay:10.37 W/m2 FEW
09:00 59.4 °F 59.4 °F 29.56 in NW 1.0 mph 6.0 mph 100 % 0.00 in WeatherDisplay:10.37 W/m2 FEW
09:05 59.6 °F 59.6 °F 29.55 in Calm   5.0 mph 100 % 0.00 in WeatherDisplay:10.37 W/m2 FEW
09:10 59.7 °F 59.7 °F 29.56 in Calm   7.0 mph 100 % 0.00 in WeatherDisplay:10.37 W/m2 FEW
09:15 59.7 °F 59.7 °F 29.56 in WNW 1.0 mph 5.0 mph 100 % 0.00 in WeatherDisplay:10.37 W/m2 FEW
09:20 59.7 °F 59.7 °F 29.56 in Calm   6.0 mph 100 % 0.00 in WeatherDisplay:10.37 W/m2 FEW
09:25 59.7 °F 59.7 °F 29.56 in Calm   3.0 mph 100 % 0.00 in WeatherDisplay:10.37 W/m2 FEW
09:30 59.8 °F 59.8 °F 29.56 in WNW 1.0 mph 7.0 mph 100 % 0.00 in WeatherDisplay:10.37 W/m2 FEW
09:35 59.8 °F 59.8 °F 29.56 in NW 2.0 mph 6.0 mph 100 % 0.00 in WeatherDisplay:10.37 W/m2 FEW
09:40 59.7 °F 59.7 °F 29.57 in NW 3.0 mph 8.0 mph 100 % 0.00 in WeatherDisplay:10.37 W/m2 FEW
09:45 59.8 °F 59.8 °F 29.57 in NW 1.0 mph 6.0 mph 100 % 0.00 in WeatherDisplay:10.37 W/m2 FEW
09:50 59.8 °F 58.9 °F 29.57 in NW 1.0 mph 7.0 mph 97 % 0.00 in WeatherDisplay:10.37 W/m2 FEW
09:55 59.9 °F 58.7 °F 29.57 in NW 2.0 mph 8.0 mph 96 % 0.00 in WeatherDisplay:10.37 W/m2 FEW
10:00 60.0 °F 58.8 °F 29.57 in Calm   1.0 mph 96 % 0.00 in WeatherDisplay:10.37 W/m2 FEW
10:05 60.3 °F 59.1 °F 29.58 in Calm     96 % 0.00 in WeatherDisplay:10.37 W/m2 FEW
10:10 60.5 °F 59.4 °F 29.58 in Calm     96 % 0.00 in WeatherDisplay:10.37 W/m2 FEW
10:15 60.6 °F 59.5 °F 29.58 in Calm     96 % 0.00 in WeatherDisplay:10.37 W/m2 FEW
10:20 60.6 °F 59.2 °F 29.58 in Calm   1.0 mph 95 % 0.00 in WeatherDisplay:10.37 W/m2 FEW
10:25 60.4 °F 59.0 °F 29.59 in Calm   1.0 mph 95 % 0.00 in WeatherDisplay:10.37 W/m2 FEW
10:30 60.3 °F 58.9 °F 29.59 in Calm     95 % 0.00 in WeatherDisplay:10.37 W/m2 FEW
10:35 60.2 °F 58.8 °F 29.59 in Calm     95 % 0.00 in WeatherDisplay:10.37 W/m2 FEW
10:40 60.1 °F 58.7 °F 29.60 in Calm   1.0 mph 95 % 0.00 in WeatherDisplay:10.37 W/m2 FEW
10:45 60.0 °F 58.3 °F 29.60 in Calm   1.0 mph 94 % 0.00 in WeatherDisplay:10.37 W/m2 FEW
10:50 59.9 °F 58.2 °F 29.60 in Calm   2.0 mph 94 % 0.01 in WeatherDisplay:10.37 W/m2 RA
10:55 59.9 °F 58.2 °F 29.60 in Calm   2.0 mph 94 % 0.01 in WeatherDisplay:10.37 W/m2 RA
11:00 59.8 °F 58.1 °F 29.60 in Calm   1.0 mph 94 % 0.00 in WeatherDisplay:10.37 W/m2 RA
11:05 59.8 °F 58.4 °F 29.61 in Calm     95 % 0.01 in WeatherDisplay:10.37 W/m2 RA
11:10 59.9 °F 58.5 °F 29.61 in Calm     95 % 0.00 in WeatherDisplay:10.37 W/m2 RA
11:15 59.9 °F 58.5 °F 29.61 in Calm     95 % 0.00 in WeatherDisplay:10.37 W/m2 FEW
11:20 59.8 °F 58.4 °F 29.61 in Calm   1.0 mph 95 % 0.00 in WeatherDisplay:10.37 W/m2 FEW
11:25 59.8 °F 58.4 °F 29.62 in Calm     95 % 0.01 in WeatherDisplay:10.37 W/m2 RA
11:30 59.7 °F 58.3 °F 29.62 in Calm   1.0 mph 95 % 0.00 in WeatherDisplay:10.37 W/m2 RA
11:35 59.6 °F 58.2 °F 29.62 in Calm     95 % 0.00 in WeatherDisplay:10.37 W/m2 FEW
11:40 59.5 °F 58.1 °F 29.63 in Calm     95 % 0.00 in WeatherDisplay:10.37 W/m2 FEW
11:45 59.5 °F 58.1 °F 29.63 in Calm     95 % 0.00 in WeatherDisplay:10.37 W/m2 FEW
11:50 59.4 °F 58.0 °F 29.63 in Calm     95 % 0.00 in WeatherDisplay:10.37 W/m2 FEW
11:55 59.5 °F 58.1 °F 29.63 in Calm     95 % 0.01 in WeatherDisplay:10.37 W/m2 RA
12:00 59.4 °F 58.0 °F 29.64 in Calm     95 % 0.00 in WeatherDisplay:10.37 W/m2 RA
12:05 59.4 °F 58.0 °F 29.64 in Calm     95 % 0.00 in WeatherDisplay:10.37 W/m2 FEW
12:10 59.4 °F 58.0 °F 29.64 in Calm     95 % 0.01 in WeatherDisplay:10.37 W/m2 RA
12:15 59.5 °F 58.1 °F 29.64 in Calm   1.0 mph 95 % 0.00 in WeatherDisplay:10.37 W/m2 RA
12:20 59.6 °F 58.1 °F 29.64 in Calm   1.0 mph 95 % 0.00 in WeatherDisplay:10.37 W/m2 FEW
12:25 59.7 °F 58.6 °F 29.64 in Calm     96 % 0.00 in WeatherDisplay:10.37 W/m2 FEW
12:30 59.9 °F 58.8 °F 29.64 in Calm     96 % 0.01 in WeatherDisplay:10.37 W/m2 RA
12:35 59.9 °F 58.7 °F 29.65 in Calm     96 % 0.00 in WeatherDisplay:10.37 W/m2 RA
12:40 59.9 °F 58.8 °F 29.65 in Calm   1.0 mph 96 % 0.00 in WeatherDisplay:10.37 W/m2 FEW
12:45 59.9 °F 58.8 °F 29.65 in Calm     96 % 0.00 in WeatherDisplay:10.37 W/m2 FEW
12:50 59.9 °F 58.8 °F 29.65 in Calm     96 % 0.00 in WeatherDisplay:10.37 W/m2 FEW
12:55 59.9 °F 58.8 °F 29.65 in Calm     96 % 0.00 in WeatherDisplay:10.37 W/m2 FEW
13:00 59.8 °F 58.7 °F 29.65 in Calm   1.0 mph 96 % 0.00 in WeatherDisplay:10.37 W/m2 FEW
13:05 59.9 °F 58.8 °F 29.65 in Calm   2.0 mph 96 % 0.00 in WeatherDisplay:10.37 W/m2 FEW
13:10 60.0 °F 58.9 °F 29.66 in Calm   2.0 mph 96 % 0.00 in WeatherDisplay:10.37 W/m2 FEW
13:15 59.9 °F 58.8 °F 29.66 in Calm   1.0 mph 96 % 0.00 in WeatherDisplay:10.37 W/m2 FEW
13:20 59.9 °F 58.8 °F 29.66 in Calm   2.0 mph 96 % 0.00 in WeatherDisplay:10.37 W/m2 FEW
13:25 59.9 °F 58.8 °F 29.66 in Calm   1.0 mph 96 % 0.00 in WeatherDisplay:10.37 W/m2 FEW
13:30 59.9 °F 58.8 °F 29.67 in Calm     96 % 0.00 in WeatherDisplay:10.37 W/m2 FEW
13:35 59.9 °F 58.5 °F 29.67 in Calm   1.0 mph 95 % 0.00 in WeatherDisplay:10.37 W/m2 FEW
13:40 59.9 °F 58.4 °F 29.67 in Calm   1.0 mph 95 % 0.00 in WeatherDisplay:10.37 W/m2 FEW
13:45 59.8 °F 58.4 °F 29.67 in Calm     95 % 0.00 in WeatherDisplay:10.37 W/m2 FEW
13:50 59.8 °F 58.3 °F 29.68 in Calm     95 % 0.00 in WeatherDisplay:10.37 W/m2 FEW
13:55 59.7 °F 58.3 °F 29.68 in Calm     95 % 0.00 in WeatherDisplay:10.37 W/m2 FEW
14:00 59.6 °F 58.2 °F 29.68 in Calm     95 % 0.01 in WeatherDisplay:10.37 W/m2 RA
14:05 59.6 °F 58.2 °F 29.68 in Calm   1.0 mph 95 % 0.00 in WeatherDisplay:10.37 W/m2 RA
14:10 59.6 °F 58.2 °F 29.68 in Calm   1.0 mph 95 % 0.00 in WeatherDisplay:10.37 W/m2 FEW
14:15 59.6 °F 58.2 °F 29.68 in Calm   1.0 mph 95 % 0.00 in WeatherDisplay:10.37 W/m2 FEW
14:20 59.5 °F 58.1 °F 29.69 in Calm   3.0 mph 95 % 0.00 in WeatherDisplay:10.37 W/m2 FEW
14:25 59.5 °F 58.1 °F 29.69 in Calm   1.0 mph 95 % 0.00 in WeatherDisplay:10.37 W/m2 FEW
14:30 59.4 °F 58.0 °F 29.69 in Calm   5.0 mph 95 % 0.00 in WeatherDisplay:10.37 W/m2 FEW
14:35 59.4 °F 58.0 °F 29.69 in Calm     95 % 0.01 in WeatherDisplay:10.37 W/m2 RA
14:40 59.3 °F 57.9 °F 29.69 in Calm   3.0 mph 95 % 0.00 in WeatherDisplay:10.37 W/m2 RA
14:45 59.2 °F 57.8 °F 29.69 in Calm   1.0 mph 95 % 0.00 in WeatherDisplay:10.37 W/m2 FEW
14:50 59.2 °F 57.8 °F 29.69 in Calm   1.0 mph 95 % 0.00 in WeatherDisplay:10.37 W/m2 FEW
14:55 59.2 °F 57.7 °F 29.69 in Calm   1.0 mph 95 % 0.00 in WeatherDisplay:10.37 W/m2 FEW
15:00 59.1 °F 57.7 °F 29.69 in Calm   1.0 mph 95 % 0.00 in WeatherDisplay:10.37 W/m2 FEW
15:05 59.0 °F 57.6 °F 29.70 in Calm   1.0 mph 95 % 0.00 in WeatherDisplay:10.37 W/m2 FEW
15:10 58.9 °F 57.5 °F 29.70 in Calm     95 % 0.00 in WeatherDisplay:10.37 W/m2 FEW
15:15 58.8 °F 57.4 °F 29.70 in Calm   1.0 mph 95 % 0.00 in WeatherDisplay:10.37 W/m2 FEW
15:20 58.6 °F 56.9 °F 29.70 in Calm   1.0 mph 94 % 0.00 in WeatherDisplay:10.37 W/m2 FEW
15:25 58.5 °F 56.8 °F 29.71 in Calm     94 % 0.00 in WeatherDisplay:10.37 W/m2 FEW
15:30 58.5 °F 57.1 °F 29.71 in Calm     95 % 0.00 in WeatherDisplay:10.37 W/m2 FEW
15:35 58.5 °F 57.1 °F 29.72 in Calm     95 % 0.00 in WeatherDisplay:10.37 W/m2 FEW
15:40 58.4 °F 57.0 °F 29.72 in Calm     95 % 0.00 in WeatherDisplay:10.37 W/m2 FEW
15:45 58.4 °F 57.0 °F 29.72 in Calm   2.0 mph 95 % 0.00 in WeatherDisplay:10.37 W/m2 FEW
15:50 58.4 °F 57.0 °F 29.72 in Calm     95 % 0.00 in WeatherDisplay:10.37 W/m2 FEW
15:55 58.4 °F 57.0 °F 29.73 in Calm     95 % 0.01 in WeatherDisplay:10.37 W/m2 RA
16:00 58.4 °F 57.0 °F 29.73 in Calm     95 % 0.00 in WeatherDisplay:10.37 W/m2 RA
16:05 58.4 °F 57.0 °F 29.73 in Calm     95 % 0.00 in WeatherDisplay:10.37 W/m2 FEW
16:10 58.4 °F 57.0 °F 29.73 in Calm     95 % 0.00 in WeatherDisplay:10.37 W/m2 FEW
16:15 58.3 °F 56.9 °F 29.73 in Calm     95 % 0.00 in WeatherDisplay:10.37 W/m2 FEW
16:20 58.2 °F 56.8 °F 29.74 in Calm     95 % 0.00 in WeatherDisplay:10.37 W/m2 FEW
16:25 58.1 °F 56.7 °F 29.74 in Calm     95 % 0.00 in WeatherDisplay:10.37 W/m2 FEW
16:30 58.1 °F 56.7 °F 29.75 in Calm     95 % 0.00 in WeatherDisplay:10.37 W/m2 FEW
16:35 58.1 °F 56.7 °F 29.75 in Calm     95 % 0.01 in WeatherDisplay:10.37 W/m2 RA
16:40 58.1 °F 56.7 °F 29.75 in Calm   1.0 mph 95 % 0.00 in WeatherDisplay:10.37 W/m2 RA
16:45 58.2 °F 56.7 °F 29.75 in Calm     95 % 0.00 in WeatherDisplay:10.37 W/m2 FEW
16:50 58.2 °F 56.8 °F 29.75 in Calm     95 % 0.00 in WeatherDisplay:10.37 W/m2 FEW
16:55 58.2 °F 56.8 °F 29.75 in Calm     95 % 0.00 in WeatherDisplay:10.37 W/m2 FEW
17:00 58.2 °F 56.8 °F 29.75 in Calm     95 % 0.00 in WeatherDisplay:10.37 W/m2 FEW
17:05 58.2 °F 56.8 °F 29.75 in Calm     95 % 0.00 in WeatherDisplay:10.37 W/m2 FEW
17:10 58.3 °F 57.2 °F 29.76 in Calm     96 % 0.00 in WeatherDisplay:10.37 W/m2 FEW
17:15 58.4 °F 57.2 °F 29.76 in Calm     96 % 0.00 in WeatherDisplay:10.37 W/m2 FEW
17:20 58.4 °F 57.3 °F 29.76 in Calm     96 % 0.00 in WeatherDisplay:10.37 W/m2 FEW
17:25 58.4 °F 57.3 °F 29.76 in Calm     96 % 0.00 in WeatherDisplay:10.37 W/m2 FEW
17:30 58.4 °F 57.3 °F 29.76 in Calm     96 % 0.00 in WeatherDisplay:10.37 W/m2 FEW
17:35 58.5 °F 57.4 °F 29.76 in Calm     96 % 0.00 in WeatherDisplay:10.37 W/m2 FEW
17:40 58.5 °F 57.4 °F 29.77 in Calm     96 % 0.00 in WeatherDisplay:10.37 W/m2 FEW
17:45 58.5 °F 57.4 °F 29.77 in Calm     96 % 0.00 in WeatherDisplay:10.37 W/m2 FEW
17:50 58.5 °F 57.4 °F 29.77 in Calm     96 % 0.00 in WeatherDisplay:10.37 W/m2 FEW
17:55 58.5 °F 57.4 °F 29.77 in Calm     96 % 0.00 in WeatherDisplay:10.37 W/m2 FEW
18:00 58.5 °F 57.4 °F 29.77 in Calm     96 % 0.00 in WeatherDisplay:10.37 W/m2 FEW
18:05 58.5 °F 57.4 °F 29.77 in Calm   1.0 mph 96 % 0.00 in WeatherDisplay:10.37 W/m2 FEW
18:10 58.4 °F 57.3 °F 29.77 in Calm     96 % 0.00 in WeatherDisplay:10.37 W/m2 FEW
18:15 58.3 °F 57.2 °F 29.78 in Calm     96 % 0.00 in WeatherDisplay:10.37 W/m2 FEW
18:20 58.3 °F 57.2 °F 29.78 in Calm     96 % 0.00 in WeatherDisplay:10.37 W/m2 FEW
18:25 58.1 °F 57.0 °F 29.78 in Calm   2.0 mph 96 % 0.00 in WeatherDisplay:10.37 W/m2 FEW
18:30 58.0 °F 56.6 °F 29.79 in Calm     95 % 0.00 in WeatherDisplay:10.37 W/m2 FEW
18:35 57.9 °F 56.5 °F 29.79 in Calm     95 % 0.00 in WeatherDisplay:10.37 W/m2 FEW
18:40 57.7 °F 56.3 °F 29.79 in Calm     95 % 0.00 in WeatherDisplay:10.37 W/m2 FEW
18:45 57.6 °F 56.2 °F 29.79 in Calm     95 % 0.00 in WeatherDisplay:10.37 W/m2 FEW
18:50 57.5 °F 56.1 °F 29.80 in Calm     95 % 0.00 in WeatherDisplay:10.37 W/m2 FEW
18:55 57.4 °F 55.9 °F 29.80 in Calm     95 % 0.00 in WeatherDisplay:10.37 W/m2 FEW
19:00 57.2 °F 55.8 °F 29.80 in Calm     95 % 0.00 in WeatherDisplay:10.37 W/m2 FEW
19:05 57.1 °F 55.7 °F 29.80 in Calm     95 % 0.00 in WeatherDisplay:10.37 W/m2 FEW
19:10 57.1 °F 55.7 °F 29.81 in Calm   1.0 mph 95 % 0.00 in WeatherDisplay:10.37 W/m2 FEW
19:15 57.0 °F 55.6 °F 29.81 in Calm     95 % 0.00 in WeatherDisplay:10.37 W/m2 FEW
19:20 56.9 °F 55.5 °F 29.81 in Calm   1.0 mph 95 % 0.00 in WeatherDisplay:10.37 W/m2 FEW
19:25 56.8 °F 55.4 °F 29.81 in Calm     95 % 0.00 in WeatherDisplay:10.37 W/m2 FEW
19:30 56.7 °F 55.3 °F 29.81 in Calm     95 % 0.00 in WeatherDisplay:10.37 W/m2 FEW
19:35 56.7 °F 55.3 °F 29.81 in Calm     95 % 0.00 in WeatherDisplay:10.37 W/m2 FEW
19:40 56.5 °F 55.1 °F 29.81 in Calm     95 % 0.00 in WeatherDisplay:10.37 W/m2 FEW
19:45 56.5 °F 55.1 °F 29.82 in Calm     95 % 0.00 in WeatherDisplay:10.37 W/m2 FEW
19:50 56.3 °F 54.9 °F 29.82 in Calm     95 % 0.00 in WeatherDisplay:10.37 W/m2 FEW
19:55 56.3 °F 54.8 °F 29.82 in Calm     95 % 0.00 in WeatherDisplay:10.37 W/m2 FEW
20:00 56.2 °F 54.8 °F 29.82 in Calm     95 % 0.00 in WeatherDisplay:10.37 W/m2 FEW
20:05 56.1 °F 54.7 °F 29.82 in Calm   1.0 mph 95 % 0.00 in WeatherDisplay:10.37 W/m2 FEW
20:10 56.0 °F 54.6 °F 29.82 in Calm     95 % 0.00 in WeatherDisplay:10.37 W/m2 FEW
20:15 55.9 °F 54.5 °F 29.82 in Calm   1.0 mph 95 % 0.00 in WeatherDisplay:10.37 W/m2 FEW
20:20 55.8 °F 54.4 °F 29.83 in Calm   1.0 mph 95 % 0.00 in WeatherDisplay:10.37 W/m2 FEW
20:25 55.6 °F 54.2 °F 29.83 in Calm   1.0 mph 95 % 0.00 in WeatherDisplay:10.37 W/m2 FEW
20:30 55.5 °F 54.1 °F 29.83 in Calm     95 % 0.00 in WeatherDisplay:10.37 W/m2 FEW
20:35 55.4 °F 54.0 °F 29.83 in Calm     95 % 0.00 in WeatherDisplay:10.37 W/m2 FEW
20:40 55.2 °F 53.8 °F 29.83 in Calm     95 % 0.00 in WeatherDisplay:10.37 W/m2 FEW
20:45 55.1 °F 53.7 °F 29.83 in Calm     95 % 0.00 in WeatherDisplay:10.37 W/m2 FEW
20:50 55.0 °F 53.6 °F 29.84 in Calm     95 % 0.00 in WeatherDisplay:10.37 W/m2 FEW
20:55 54.9 °F 53.5 °F 29.84 in Calm     95 % 0.00 in WeatherDisplay:10.37 W/m2 FEW
21:00 54.7 °F 53.3 °F 29.84 in Calm     95 % 0.00 in WeatherDisplay:10.37 W/m2 FEW
21:05 54.7 °F 53.3 °F 29.84 in Calm     95 % 0.00 in WeatherDisplay:10.37 W/m2 FEW
21:10 54.6 °F 53.2 °F 29.84 in Calm     95 % 0.00 in WeatherDisplay:10.37 W/m2 FEW
21:15 54.5 °F 53.1 °F 29.84 in Calm     95 % 0.00 in WeatherDisplay:10.37 W/m2 FEW
21:20 54.4 °F 53.0 °F 29.84 in Calm     95 % 0.00 in WeatherDisplay:10.37 W/m2 FEW
21:25 54.3 °F 52.9 °F 29.85 in Calm     95 % 0.00 in WeatherDisplay:10.37 W/m2 FEW
21:30 54.3 °F 52.9 °F 29.85 in Calm     95 % 0.00 in WeatherDisplay:10.37 W/m2 FEW
21:35 54.2 °F 52.8 °F 29.85 in Calm     95 % 0.00 in WeatherDisplay:10.37 W/m2 FEW
21:40 54.2 °F 52.8 °F 29.85 in Calm     95 % 0.00 in WeatherDisplay:10.37 W/m2 FEW
21:45 54.1 °F 52.7 °F 29.85 in Calm     95 % 0.00 in WeatherDisplay:10.37 W/m2 FEW
21:50 54.1 °F 52.7 °F 29.85 in Calm     95 % 0.00 in WeatherDisplay:10.37 W/m2 FEW
21:55 54.0 °F 52.6 °F 29.86 in Calm     95 % 0.00 in WeatherDisplay:10.37 W/m2 FEW
22:00 54.0 °F 52.6 °F 29.86 in Calm     95 % 0.00 in WeatherDisplay:10.37 W/m2 FEW
22:05 54.0 °F 52.6 °F 29.86 in Calm     95 % 0.00 in WeatherDisplay:10.37 W/m2 FEW
22:10 53.9 °F 52.5 °F 29.86 in Calm     95 % 0.00 in WeatherDisplay:10.37 W/m2 FEW
22:15 53.9 °F 52.5 °F 29.86 in Calm     95 % 0.00 in WeatherDisplay:10.37 W/m2 FEW
22:20 53.8 °F 52.4 °F 29.86 in Calm     95 % 0.00 in WeatherDisplay:10.37 W/m2 FEW
22:25 53.8 °F 52.4 °F 29.86 in Calm     95 % 0.00 in WeatherDisplay:10.37 W/m2 FEW
22:30 53.7 °F 52.3 °F 29.86 in Calm     95 % 0.00 in WeatherDisplay:10.37 W/m2 FEW
22:35 53.6 °F 52.2 °F 29.86 in Calm     95 % 0.00 in WeatherDisplay:10.37 W/m2 FEW
22:40 53.6 °F 52.2 °F 29.86 in Calm     95 % 0.00 in WeatherDisplay:10.37 W/m2 FEW
22:45 53.5 °F 52.1 °F 29.86 in Calm     95 % 0.00 in WeatherDisplay:10.37 W/m2 FEW
22:50 53.4 °F 52.0 °F 29.86 in Calm     95 % 0.00 in WeatherDisplay:10.37 W/m2 FEW
22:55 53.4 °F 52.0 °F 29.86 in Calm     95 % 0.00 in WeatherDisplay:10.37 W/m2 FEW
23:00 53.3 °F 51.9 °F 29.86 in Calm     95 % 0.00 in WeatherDisplay:10.37 W/m2 FEW
23:05 53.2 °F 51.8 °F 29.86 in Calm     95 % 0.00 in WeatherDisplay:10.37 W/m2 FEW
23:10 53.2 °F 51.8 °F 29.86 in Calm     95 % 0.00 in WeatherDisplay:10.37 W/m2 FEW
23:15 53.1 °F 51.7 °F 29.86 in Calm     95 % 0.00 in WeatherDisplay:10.37 W/m2 FEW
23:20 53.1 °F 51.7 °F 29.87 in Calm     95 % 0.00 in WeatherDisplay:10.37 W/m2 FEW
23:25 53.0 °F 51.6 °F 29.87 in Calm     95 % 0.00 in WeatherDisplay:10.37 W/m2 FEW
23:30 53.0 °F 51.6 °F 29.87 in Calm     95 % 0.00 in WeatherDisplay:10.37 W/m2 FEW
23:35 52.9 °F 51.5 °F 29.86 in Calm     95 % 0.00 in WeatherDisplay:10.37 W/m2 FEW
23:40 52.9 °F 51.5 °F 29.87 in Calm     95 % 0.00 in WeatherDisplay:10.37 W/m2 FEW
23:45 52.9 °F 51.8 °F 29.87 in Calm     96 % 0.00 in WeatherDisplay:10.37 W/m2 FEW
23:50 52.9 °F 51.8 °F 29.87 in Calm     96 % 0.00 in WeatherDisplay:10.37 W/m2 FEW
23:55 52.8 °F 51.7 °F 29.87 in Calm     96 % 0.00 in WeatherDisplay:10.37 W/m2 FEW
Juneau County Weather
Compliments of Weather Underground - 3 mb